Time;durP1;ratioP1;P1;durP2;ratioP2;P2;SDS_P1;SDS_P2;PMS_P1;PMS_P2;Temp;Humidity;BMP_temperature;BMP_pressure;BME280_temperature;BME280_humidity;BME280_pressure;Samples;Min_cycle;Max_cycle;Signal;HPM_P1;HPM_P2
2021/07/26 00:00:53;;;;;;;5.00;4.50;;;;;;;34.96;21.21;94716.94;5076903;28;20056;-66
2021/07/26 00:03:20;;;;;;;4.43;3.95;;;;;;;34.87;21.48;94699.34;5075798;28;20047;-66
2021/07/26 00:05:57;;;;;;;4.38;3.97;;;;;;;34.87;21.48;94704.78;5076569;28;20063;-67
2021/07/26 00:08:25;;;;;;;4.68;4.00;;;;;;;34.81;21.52;94701.03;5079402;28;20063;-66
2021/07/26 00:11:05;;;;;;;4.88;4.18;;;;;;;34.78;21.69;94695.72;5096735;28;20048;-66
2021/07/26 00:13:32;;;;;;;4.50;4.07;;;;;;;34.58;21.56;94695.91;5076630;28;20047;-67
2021/07/26 00:16:00;;;;;;;4.43;4.03;;;;;;;34.75;21.02;94691.91;5076210;28;20056;-66
2021/07/26 00:18:27;;;;;;;4.97;3.75;;;;;;;34.75;20.94;94702.00;5075918;28;20036;-68
2021/07/26 00:20:56;;;;;;;4.35;3.70;;;;;;;34.72;21.25;94703.66;5077255;28;20366;-68
2021/07/26 00:23:23;;;;;;;5.45;3.70;;;;;;;34.96;20.68;94708.78;5094053;28;20044;-68
2021/07/26 00:25:51;;;;;;;4.03;3.63;;;;;;;34.65;21.01;94708.53;5092638;28;20051;-60
2021/07/26 00:28:18;;;;;;;4.13;3.28;;;;;;;34.93;20.68;94719.31;5076618;28;20370;-67
2021/07/26 00:30:45;;;;;;;4.13;3.72;;;;;;;34.89;20.79;94718.69;5075465;28;20063;-66
2021/07/26 00:34:28;;;;;;;4.07;3.67;;;;;;;34.89;20.69;94732.25;5076591;28;20045;-67
2021/07/26 00:36:30;;;;;;;5.63;3.60;;;;;;;34.59;21.06;94724.56;5058619;28;20064;-68
2021/07/26 00:39:03;;;;;;;5.00;3.63;;;;;;;34.59;21.19;94716.44;5093481;28;20114;-68
2021/07/26 00:41:31;;;;;;;6.13;3.63;;;;;;;34.73;20.89;94710.59;5096869;28;20051;-67
2021/07/26 00:43:58;;;;;;;4.22;3.60;;;;;;;34.67;20.97;94719.72;5096952;28;20052;-65
2021/07/26 00:46:25;;;;;;;4.78;4.10;;;;;;;34.66;20.86;94720.91;5090073;28;20056;-64
2021/07/26 00:48:53;;;;;;;5.43;3.95;;;;;;;34.59;20.94;94717.19;5095741;28;20052;-64
2021/07/26 00:51:21;;;;;;;4.90;4.40;;;;;;;34.38;21.53;94717.06;5096492;28;20055;-68
2021/07/26 00:53:48;;;;;;;5.72;4.20;;;;;;;34.65;20.98;94722.88;5095247;28;20055;-68
2021/07/26 00:56:16;;;;;;;5.97;4.35;;;;;;;34.40;21.41;94714.69;5089466;28;20437;-64
2021/07/26 00:58:44;;;;;;;4.60;4.20;;;;;;;34.33;21.12;94721.78;5057404;28;20332;-67
2021/07/26 01:01:13;;;;;;;4.57;4.03;;;;;;;34.28;21.25;94719.59;5076297;28;20051;-67
2021/07/26 01:03:50;;;;;;;4.45;4.05;;;;;;;34.21;21.09;94708.97;5075151;28;20048;-67
2021/07/26 01:06:17;;;;;;;6.75;4.72;;;;;;;34.29;21.31;94713.00;5081108;28;20051;-65
2021/07/26 01:08:45;;;;;;;4.50;4.10;;;;;;;34.42;21.05;94707.63;5072788;28;20477;-66
2021/07/26 01:11:12;;;;;;;4.88;4.20;;;;;;;34.29;21.39;94704.84;5096285;28;20055;-67
2021/07/26 01:13:39;;;;;;;5.90;4.32;;;;;;;34.50;21.10;94698.09;5096725;28;20044;-68
2021/07/26 01:16:06;;;;;;;7.32;4.00;;;;;;;34.27;21.51;94696.38;5091090;28;20045;-59
2021/07/26 01:18:34;;;;;;;4.93;4.30;;;;;;;34.42;21.06;94707.63;5074632;28;20048;-67
2021/07/26 01:21:03;;;;;;;4.72;3.88;;;;;;;34.36;21.51;94708.59;5075682;28;20051;-68
2021/07/26 01:23:36;;;;;;;4.30;3.90;;;;;;;34.41;21.18;94705.34;5094535;28;20347;-63
2021/07/26 01:26:05;;;;;;;4.65;4.25;;;;;;;34.27;21.44;94712.66;5091841;28;20067;-68
2021/07/26 01:28:37;;;;;;;5.00;4.20;;;;;;;34.21;21.53;94719.06;5074884;28;20079;-68
2021/07/26 01:31:05;;;;;;;3.90;3.60;;;;;;;34.28;21.57;94714.19;5075204;28;20379;-65
2021/07/26 01:33:33;;;;;;;5.72;4.03;;;;;;;34.35;21.32;94717.91;5075162;28;20048;-66
2021/07/26 01:36:00;;;;;;;4.72;4.32;;;;;;;34.49;21.02;94722.94;5074837;28;20478;-67
2021/07/26 01:38:27;;;;;;;4.15;3.75;;;;;;;34.39;21.40;94724.78;5087661;28;20048;-67
2021/07/26 01:41:00;;;;;;;5.03;3.90;;;;;;;34.20;21.57;94726.44;5094628;28;20044;-67
2021/07/26 01:43:40;;;;;;;5.97;3.90;;;;;;;34.31;21.17;94723.41;5095585;28;20085;-68
2021/07/26 01:46:10;;;;;;;5.80;4.00;;;;;;;34.05;21.50;94725.28;5095133;28;20050;-67
2021/07/26 01:48:59;;;;;;;5.13;3.80;;;;;;;33.91;21.62;94731.09;5094533;28;20059;-67
2021/07/26 01:51:39;;;;;;;4.82;4.20;;;;;;;34.03;21.54;94736.56;5095187;28;20358;-68
2021/07/26 01:54:08;;;;;;;5.63;3.90;;;;;;;34.08;21.41;94732.56;5095519;28;20047;-68
2021/07/26 01:56:35;;;;;;;4.80;4.30;;;;;;;34.08;21.32;94732.56;5087717;28;20044;-68
2021/07/26 01:59:03;;;;;;;4.10;3.70;;;;;;;34.19;21.14;94733.03;5056770;28;20051;-62
2021/07/26 02:01:30;;;;;;;6.32;4.55;;;;;;;34.26;21.51;94724.72;5074257;28;20056;-69
2021/07/26 02:03:57;;;;;;;4.50;3.88;;;;;;;34.35;20.95;94734.19;5075087;28;20056;-68
2021/07/26 02:06:25;;;;;;;4.43;4.00;;;;;;;34.31;21.33;94739.69;5074846;28;20052;-69
2021/07/26 02:08:52;;;;;;;5.25;4.55;;;;;;;34.50;20.88;94740.75;5090353;28;20052;-69
2021/07/26 02:11:21;;;;;;;5.03;4.10;;;;;;;34.37;21.10;94753.53;5094629;28;20048;-68
2021/07/26 02:13:53;;;;;;;6.13;4.20;;;;;;;34.03;21.50;94752.06;5094193;28;20052;-68
2021/07/26 02:16:23;;;;;;;4.97;4.45;;;;;;;33.91;21.85;94758.22;5090165;28;20055;-68
2021/07/26 02:18:50;;;;;;;4.50;3.80;;;;;;;34.24;21.16;94762.34;5073976;28;20055;-68
2021/07/26 02:21:17;;;;;;;5.97;4.05;;;;;;;34.06;21.61;94755.88;5073989;28;20048;-67
2021/07/26 02:23:44;;;;;;;5.18;4.30;;;;;;;33.98;21.95;94756.06;5094671;28;20067;-67
2021/07/26 02:26:11;;;;;;;4.60;4.20;;;;;;;33.96;21.78;94763.13;5091467;28;20051;-67
2021/07/26 02:28:39;;;;;;;4.90;4.00;;;;;;;33.77;22.13;94769.38;5073021;28;20052;-66
2021/07/26 02:31:06;;;;;;;4.32;3.63;;;;;;;34.01;21.89;94765.31;5073906;28;20045;-67
2021/07/26 02:33:34;;;;;;;4.55;3.90;;;;;;;33.88;22.16;94761.78;5073738;28;20060;-67
2021/07/26 02:36:01;;;;;;;4.43;3.90;;;;;;;33.82;22.08;94771.56;5074360;28;20060;-68
2021/07/26 02:38:28;;;;;;;4.50;3.78;;;;;;;33.91;21.85;94779.91;5083370;28;20059;-68
2021/07/26 02:40:55;;;;;;;6.47;3.97;;;;;;;33.90;21.79;94770.25;5073938;28;20302;-67
2021/07/26 02:43:22;;;;;;;4.47;3.78;;;;;;;33.90;21.93;94770.25;5073783;28;20048;-67
2021/07/26 02:45:49;;;;;;;4.63;4.20;;;;;;;33.76;21.70;94773.28;5073136;28;20051;-67
2021/07/26 02:48:16;;;;;;;3.80;3.42;;;;;;;33.80;22.13;94771.25;5073872;28;20048;-67
2021/07/26 02:50:43;;;;;;;4.68;3.92;;;;;;;33.80;22.12;94760.41;5073277;28;20459;-67
2021/07/26 02:53:10;;;;;;;5.75;4.30;;;;;;;33.77;22.53;94759.31;5090663;28;20048;-67
2021/07/26 02:55:39;;;;;;;4.65;4.20;;;;;;;33.71;21.97;94769.91;5094530;28;20044;-69
2021/07/26 02:58:07;;;;;;;5.10;3.95;;;;;;;33.72;22.09;94770.66;5075622;28;20359;-69
2021/07/26 03:00:34;;;;;;;7.07;4.05;;;;;;;33.94;22.05;94776.34;5074117;28;20052;-67
2021/07/26 03:03:01;;;;;;;7.05;4.72;;;;;;;33.57;22.31;94775.69;5074360;28;20115;-69
2021/07/26 03:05:28;;;;;;;6.03;4.20;;;;;;;33.56;22.58;94773.38;5073107;28;20075;-67
2021/07/26 03:07:55;;;;;;;6.18;4.25;;;;;;;33.69;22.45;94777.69;5081858;28;20044;-67
2021/07/26 03:10:22;;;;;;;8.27;4.13;;;;;;;33.76;22.03;94787.59;5089058;28;20048;-67
2021/07/26 03:12:49;;;;;;;6.38;4.30;;;;;;;33.67;22.43;94780.06;5074089;28;20052;-67
2021/07/26 03:15:18;;;;;;;5.78;3.90;;;;;;;33.72;22.53;94781.50;5073302;28;20439;-68
2021/07/26 03:17:46;;;;;;;5.10;3.80;;;;;;;33.61;22.86;94786.44;5072751;28;20045;-70
2021/07/26 03:20:13;;;;;;;4.30;3.90;;;;;;;33.61;22.72;94781.78;5073584;28;20044;-67
2021/07/26 03:22:49;;;;;;;4.78;4.28;;;;;;;33.75;22.54;94786.06;5086077;28;20056;-68
2021/07/26 03:25:17;;;;;;;4.25;3.85;;;;;;;33.58;22.94;94779.16;5095032;28;20060;-68
2021/07/26 03:27:44;;;;;;;7.40;4.32;;;;;;;33.55;22.91;94783.47;5082310;28;20044;-68
2021/07/26 03:30:12;;;;;;;7.85;4.30;;;;;;;33.63;22.71;94787.53;5077574;28;20045;-68
2021/07/26 03:32:39;;;;;;;4.88;3.88;;;;;;;33.75;22.71;94790.75;5087184;28;20457;-67
2021/07/26 03:35:06;;;;;;;5.75;4.38;;;;;;;33.77;22.62;94788.34;5097120;28;20052;-68
2021/07/26 03:37:33;;;;;;;5.50;4.20;;;;;;;33.71;22.74;94791.59;5088855;28;20051;-68
2021/07/26 03:40:00;;;;;;;8.13;4.70;;;;;;;33.60;22.83;94790.34;5097988;28;20048;-67
2021/07/26 03:42:27;;;;;;;6.80;4.50;;;;;;;33.70;22.46;94800.91;5098106;28;20050;-68
2021/07/26 03:44:56;;;;;;;5.10;4.60;;;;;;;33.64;22.66;94802.63;5077279;28;20063;-68
2021/07/26 03:47:24;;;;;;;7.38;5.18;;;;;;;33.63;22.85;94790.25;5077232;28;20075;-68
2021/07/26 03:49:51;;;;;;;6.95;4.65;;;;;;;33.72;22.73;94801.25;5077604;28;20049;-68
2021/07/26 03:52:19;;;;;;;5.95;4.70;;;;;;;33.69;22.77;94804.81;5086726;28;20036;-67
2021/07/26 03:54:46;;;;;;;8.23;4.40;;;;;;;33.65;22.92;94808.78;5097071;28;20058;-68
2021/07/26 03:57:13;;;;;;;6.30;5.22;;;;;;;33.63;23.08;94811.16;5095930;28;20040;-69
2021/07/26 03:59:40;;;;;;;7.15;4.45;;;;;;;33.62;23.13;94810.41;5097831;28;20048;-68
2021/07/26 04:02:07;;;;;;;5.15;4.45;;;;;;;33.63;23.24;94809.22;5096621;28;20044;-68
2021/07/26 04:04:35;;;;;;;10.75;5.05;;;;;;;33.65;23.15;94817.69;5083827;28;20056;-68
2021/07/26 04:07:06;;;;;;;7.70;4.95;;;;;;;33.76;23.57;94808.53;5084130;28;20048;-68
2021/07/26 04:09:38;;;;;;;6.43;4.95;;;;;;;33.53;23.29;94807.50;5097516;28;20055;-70
2021/07/26 04:12:08;;;;;;;6.60;4.63;;;;;;;33.65;23.74;94809.56;5097506;28;20046;-70
2021/07/26 04:14:39;;;;;;;5.55;4.63;;;;;;;33.65;23.44;94806.84;5080705;28;20048;-62
2021/07/26 04:17:06;;;;;;;6.17;4.67;;;;;;;33.70;23.65;94808.28;5085813;28;20067;-59
2021/07/26 04:19:33;;;;;;;5.35;4.35;;;;;;;33.69;23.66;94806.75;5097459;28;20044;-69
2021/07/26 04:22:00;;;;;;;8.50;4.60;;;;;;;33.72;23.70;94803.97;5097276;28;20047;-73
2021/07/26 04:24:27;;;;;;;6.80;5.00;;;;;;;33.62;24.12;94815.84;5096582;28;20082;-53
2021/07/26 04:26:55;;;;;;;5.88;4.65;;;;;;;33.58;24.10;94806.25;5095606;28;20044;-51
2021/07/26 04:29:22;;;;;;;6.60;4.35;;;;;;;33.66;24.41;94811.09;5060976;28;20047;-58
2021/07/26 04:31:50;;;;;;;7.30;4.38;;;;;;;33.59;24.32;94805.84;5096425;28;20473;-62
2021/07/26 04:34:17;;;;;;;7.80;4.78;;;;;;;33.83;24.38;94814.59;5096455;28;20067;-56
2021/07/26 04:36:44;;;;;;;5.57;4.30;;;;;;;33.84;24.57;94826.94;5041270;22;20489;-62
2021/07/26 04:39:11;;;;;;;7.57;4.50;;;;;;;33.94;24.56;94825.91;5056187;28;20833;-49
2021/07/26 04:41:38;;;;;;;6.57;4.85;;;;;;;34.18;24.08;94829.19;5056688;28;20447;-56
2021/07/26 04:44:06;;;;;;;6.32;4.20;;;;;;;33.86;24.81;94829.25;5056782;28;20048;-59
2021/07/26 04:46:33;;;;;;;8.55;4.78;;;;;;;34.13;23.83;94834.38;5053316;28;20059;-61
2021/07/26 04:49:00;;;;;;;8.68;4.32;;;;;;;34.07;24.07;94836.81;5036833;28;20049;-59
2021/07/26 04:51:27;;;;;;;5.88;4.65;;;;;;;33.89;23.66;94839.22;5036814;28;20060;-62
2021/07/26 04:53:54;;;;;;;6.53;4.00;;;;;;;34.01;23.77;94842.00;5036818;28;20072;-61
2021/07/26 04:56:21;;;;;;;6.70;4.22;;;;;;;34.11;23.22;94834.78;5036373;28;20045;-64
2021/07/26 04:58:48;;;;;;;7.70;3.67;;;;;;;34.41;22.66;94838.31;5035749;28;20447;-56
2021/07/26 05:01:15;;;;;;;4.80;3.55;;;;;;;35.07;21.81;94828.72;5034121;28;20061;-57
2021/07/26 05:03:42;;;;;;;4.70;3.63;;;;;;;36.07;20.83;94840.78;5055024;28;20048;-65
2021/07/26 05:06:09;;;;;;;6.43;3.30;;;;;;;34.56;22.24;94825.88;5045788;28;20049;-64
2021/07/26 05:08:36;;;;;;;5.80;3.60;;;;;;;34.53;22.37;94837.59;5035520;28;20045;-62
2021/07/26 05:11:03;;;;;;;5.20;3.70;;;;;;;34.53;21.97;94834.88;5036055;28;20057;-63
2021/07/26 05:13:31;;;;;;;5.22;3.50;;;;;;;34.54;22.23;94833.69;5035993;28;20045;-67
2021/07/26 05:15:58;;;;;;;6.30;3.00;;;;;;;34.56;21.99;94834.00;5035574;28;20045;-65
2021/07/26 05:18:25;;;;;;;6.20;3.63;;;;;;;34.53;22.05;94834.88;5035732;28;20371;-62
2021/07/26 05:20:53;;;;;;;5.10;3.35;;;;;;;34.91;21.66;94833.06;5036287;28;20356;-65
2021/07/26 05:23:20;;;;;;;7.28;3.80;;;;;;;34.59;22.29;94844.75;5035872;28;20060;-65
2021/07/26 05:25:47;;;;;;;5.82;3.58;;;;;;;35.00;21.75;94837.09;5035618;28;20041;-62
2021/07/26 05:28:14;;;;;;;6.00;3.58;;;;;;;34.90;21.79;94839.69;5033955;28;20056;-64
2021/07/26 05:30:42;;;;;;;5.25;4.22;;;;;;;34.87;21.98;94848.69;5035936;28;20041;-63
2021/07/26 05:33:09;;;;;;;5.82;3.70;;;;;;;35.07;22.04;94853.16;5035495;28;20053;-64
2021/07/26 05:35:37;;;;;;;4.93;3.88;;;;;;;34.77;21.66;94852.44;5034728;28;20060;-66
2021/07/26 05:38:05;;;;;;;4.90;3.65;;;;;;;35.06;21.76;94851.66;5034072;28;20056;-63
2021/07/26 05:40:32;;;;;;;3.83;3.42;;;;;;;35.47;21.47;94854.31;5035824;28;20042;-66
2021/07/26 05:43:00;;;;;;;4.05;3.65;;;;;;;35.12;21.80;94852.63;5034398;28;20364;-64
2021/07/26 05:45:27;;;;;;;4.43;3.65;;;;;;;35.31;21.39;94857.09;5034559;28;20045;-64
2021/07/26 05:47:54;;;;;;;6.32;3.67;;;;;;;35.35;21.27;94863.22;5035088;28;20056;-65
2021/07/26 05:50:21;;;;;;;12.25;3.92;;;;;;;35.66;21.00;94860.75;5035468;28;20052;-65
2021/07/26 05:52:49;;;;;;;6.20;3.88;;;;;;;35.56;21.39;94855.63;5035534;28;20076;-67
2021/07/26 05:55:16;;;;;;;4.55;3.60;;;;;;;35.66;21.17;94859.97;5035180;28;20041;-63
2021/07/26 05:57:46;;;;;;;5.43;3.30;;;;;;;35.49;21.01;94860.09;5034550;28;20056;-64
2021/07/26 06:00:15;;;;;;;6.03;3.20;;;;;;;35.84;20.92;94852.78;5035313;28;20037;-64
2021/07/26 06:02:43;;;;;;;5.85;4.00;;;;;;;36.02;20.55;94863.09;5008294;28;20056;-65
2021/07/26 06:05:11;;;;;;;3.97;3.42;;;;;;;36.14;20.47;94862.28;5042119;28;20368;-65
2021/07/26 06:07:38;;;;;;;6.22;3.20;;;;;;;35.99;20.60;94868.66;5046914;28;20045;-63
2021/07/26 06:10:06;;;;;;;6.13;3.72;;;;;;;36.06;20.51;94858.28;5044706;28;20056;-65
2021/07/26 06:12:33;;;;;;;5.32;3.65;;;;;;;36.35;20.20;94863.56;5044670;28;20049;-65
2021/07/26 06:15:00;;;;;;;5.28;3.90;;;;;;;36.43;19.97;94864.06;5044403;28;20041;-60
2021/07/26 06:17:27;;;;;;;4.18;3.58;;;;;;;36.30;19.94;94864.13;5044464;28;20060;-64
2021/07/26 06:19:54;;;;;;;6.25;3.63;;;;;;;36.90;19.88;94860.50;5045200;28;20045;-62
2021/07/26 06:22:21;;;;;;;4.53;3.67;;;;;;;36.82;19.89;94870.16;5043940;28;20049;-63
2021/07/26 06:24:48;;;;;;;8.32;3.78;;;;;;;36.66;19.87;94857.44;5042745;28;20049;-60
2021/07/26 06:27:15;;;;;;;5.50;3.50;;;;;;;36.73;20.24;94862.66;5039885;28;20044;-64
2021/07/26 06:29:42;;;;;;;8.98;4.50;;;;;;;37.49;19.38;94858.75;5041345;28;20049;-64
2021/07/26 06:32:10;;;;;;;7.47;4.10;;;;;;;37.27;19.66;94854.09;5034804;28;20045;-66
2021/07/26 06:34:37;;;;;;;8.07;4.00;;;;;;;37.32;19.39;94858.97;5034236;28;20046;-65
2021/07/26 06:37:04;;;;;;;3.90;3.60;;;;;;;37.46;19.38;94867.78;5033645;28;20053;-63
2021/07/26 06:39:31;;;;;;;6.63;3.70;;;;;;;37.87;18.87;94853.72;5034678;28;20045;-65
2021/07/26 06:41:58;;;;;;;4.93;4.20;;;;;;;38.27;18.56;94841.97;5034859;28;20037;-64
2021/07/26 06:44:25;;;;;;;8.40;4.43;;;;;;;38.17;18.93;94854.84;5035453;28;20072;-66
2021/07/26 06:46:52;;;;;;;6.43;4.72;;;;;;;38.47;18.13;94850.47;5033731;28;20049;-62
2021/07/26 06:49:19;;;;;;;9.80;4.60;;;;;;;38.40;18.42;94845.31;5034648;28;20045;-65
2021/07/26 06:51:46;;;;;;;11.63;4.80;;;;;;;38.77;17.96;94851.53;5034729;28;20045;-66
2021/07/26 06:54:13;;;;;;;6.10;4.68;;;;;;;38.80;18.16;94841.69;5034647;28;20045;-65
2021/07/26 06:56:40;;;;;;;7.10;5.05;;;;;;;38.73;18.24;94844.69;5034778;28;20049;-65
2021/07/26 06:59:08;;;;;;;9.45;5.10;;;;;;;39.01;18.19;94846.16;5034029;28;20041;-66
2021/07/26 07:01:35;;;;;;;6.25;4.35;;;;;;;39.19;17.83;94847.38;5034227;28;20360;-66
2021/07/26 07:04:02;;;;;;;5.72;4.47;;;;;;;39.11;18.21;94842.22;5034482;28;20042;-64
2021/07/26 07:06:29;;;;;;;7.93;5.15;;;;;;;38.26;18.44;94843.19;5033719;28;20053;-64
2021/07/26 07:08:56;;;;;;;57.03;45.58;;;;;;;38.58;18.03;94844.56;5033795;28;20057;-64
2021/07/26 07:11:24;;;;;;;20.80;17.95;;;;;;;38.24;18.40;94840.13;5033567;28;20359;-67
2021/07/26 07:13:53;;;;;;;12.07;10.43;;;;;;;38.11;18.88;94850.44;5034399;28;20060;-66
2021/07/26 07:16:39;;;;;;;16.05;12.77;;;;;;;38.08;19.23;94841.19;5034376;28;20041;-67
2021/07/26 07:19:24;;;;;;;9.18;5.65;;;;;;;38.00;18.90;94833.72;5040798;28;20040;-64
2021/07/26 07:22:10;;;;;;;12.82;6.90;;;;;;;38.53;18.45;94835.00;5040993;28;20056;-65
2021/07/26 07:24:56;;;;;;;9.75;5.40;;;;;;;38.18;18.43;94831.81;5040618;28;20044;-68
2021/07/26 07:27:41;;;;;;;6.45;4.38;;;;;;;38.64;18.13;94842.00;5033324;28;20360;-66
2021/07/26 07:30:27;;;;;;;6.72;4.35;;;;;;;39.19;17.45;94836.44;5034239;28;20060;-64
2021/07/26 07:33:13;;;;;;;4.75;4.18;;;;;;;39.44;17.44;94841.50;5034213;28;20056;-61
2021/07/26 07:35:40;;;;;;;6.68;4.18;;;;;;;39.33;17.32;94839.28;5033566;28;20072;-63
2021/07/26 07:38:08;;;;;;;7.32;4.30;;;;;;;39.44;17.08;94842.25;5033922;28;20041;-65
2021/07/26 07:40:37;;;;;;;6.45;4.30;;;;;;;39.20;17.24;94837.94;5033186;28;20041;-64
2021/07/26 07:43:05;;;;;;;8.27;4.20;;;;;;;39.71;17.17;94843.38;5033995;28;20057;-65
2021/07/26 07:45:33;;;;;;;7.88;4.18;;;;;;;40.09;16.93;94847.44;5034169;28;20364;-66
2021/07/26 07:48:01;;;;;;;14.38;4.90;;;;;;;40.17;16.98;94851.34;5033607;28;20057;-65
2021/07/26 07:50:29;;;;;;;5.07;4.13;;;;;;;39.97;16.64;94849.19;5033108;28;20363;-65
2021/07/26 07:52:57;;;;;;;5.78;4.28;;;;;;;39.94;16.90;94850.09;5034009;28;20363;-66
2021/07/26 07:55:25;;;;;;;6.78;4.15;;;;;;;40.19;16.65;94844.19;5034066;28;20383;-65
2021/07/26 07:57:52;;;;;;;5.45;4.20;;;;;;;40.48;16.26;94840.03;5032883;28;20049;-66
2021/07/26 08:00:20;;;;;;;7.60;3.92;;;;;;;40.17;16.04;94846.63;5034045;28;20037;-65
2021/07/26 08:02:47;;;;;;;6.35;4.00;;;;;;;40.10;15.86;94849.72;5016615;28;20045;-65
2021/07/26 08:05:16;;;;;;;12.93;11.73;;;;;;;40.34;15.77;94844.22;5033344;28;20049;-65
2021/07/26 08:07:44;;;;;;;8.38;6.43;;;;;;;40.32;16.04;94839.19;5032265;28;20041;-65
2021/07/26 08:10:12;;;;;;;7.55;3.97;;;;;;;40.43;15.98;94835.19;5034429;28;20364;-66
2021/07/26 08:12:39;;;;;;;4.50;4.10;;;;;;;40.10;16.41;94841.50;5034773;28;20053;-66
2021/07/26 08:15:07;;;;;;;6.03;3.95;;;;;;;40.66;15.90;94832.41;5037385;28;20052;-63
2021/07/26 08:17:42;;;;;;;6.93;3.55;;;;;;;40.23;16.49;94828.31;5036972;28;20061;-65
2021/07/26 08:20:13;;;;;;;7.82;3.42;;;;;;;40.60;15.86;94823.34;5037483;28;20045;-64
2021/07/26 08:22:41;;;;;;;6.07;3.75;;;;;;;40.70;15.86;94832.22;5037289;28;20050;-66
2021/07/26 08:25:11;;;;;;;4.45;3.35;;;;;;;40.35;16.30;94824.59;5037044;28;20489;-63
2021/07/26 08:27:49;;;;;;;6.18;5.18;;;;;;;40.82;15.99;94812.03;5036615;28;20056;-65
2021/07/26 08:30:20;;;;;;;5.70;4.05;;;;;;;40.89;15.61;94817.13;5037016;28;20053;-63
2021/07/26 08:32:48;;;;;;;7.05;3.35;;;;;;;40.85;16.08;94816.56;5037119;28;20049;-65
2021/07/26 08:35:15;;;;;;;9.00;3.72;;;;;;;41.07;15.90;94823.63;5036024;28;20060;-65
2021/07/26 08:37:42;;;;;;;4.53;4.10;;;;;;;41.15;15.62;94822.78;5036396;28;20049;-67
2021/07/26 08:40:10;;;;;;;8.93;8.00;;;;;;;40.84;15.23;94814.28;5037109;28;20052;-65
2021/07/26 08:42:37;;;;;;;33.08;29.65;;;;;;;40.97;15.44;94820.25;5037043;28;20041;-65
2021/07/26 08:45:05;;;;;;;7.72;6.30;;;;;;;41.29;15.18;94810.31;5035531;28;20041;-60
2021/07/26 08:47:34;;;;;;;5.25;4.28;;;;;;;41.20;15.34;94818.63;5036257;28;20460;-63
2021/07/26 08:50:04;;;;;;;7.95;3.63;;;;;;;40.86;15.49;94817.31;5035861;28;20052;-64
2021/07/26 08:52:34;;;;;;;5.65;3.70;;;;;;;41.28;15.25;94817.03;5036872;28;20050;-66
2021/07/26 08:55:03;;;;;;;4.10;3.40;;;;;;;41.12;15.34;94822.97;5035492;28;20041;-66
2021/07/26 08:57:30;;;;;;;4.30;3.45;;;;;;;41.65;15.23;94808.38;5036338;28;20049;-65
2021/07/26 08:59:57;;;;;;;5.03;3.88;;;;;;;41.25;15.41;94820.72;5035505;28;20049;-66
2021/07/26 09:02:24;;;;;;;7.18;3.70;;;;;;;41.35;15.16;94816.63;5036488;28;20056;-67
2021/07/26 09:04:51;;;;;;;12.43;6.63;;;;;;;41.78;14.50;94811.53;5036457;28;20046;-67
2021/07/26 09:07:28;;;;;;;12.85;7.10;;;;;;;41.26;15.18;94814.00;5035482;28;20060;-66
2021/07/26 09:09:55;;;;;;;7.38;4.55;;;;;;;41.19;15.48;94811.63;5036426;28;20475;-65
2021/07/26 09:12:32;;;;;;;6.22;4.43;;;;;;;41.13;15.28;94810.78;5036185;28;20356;-67
2021/07/26 09:15:00;;;;;;;5.28;3.45;;;;;;;41.34;15.10;94804.16;5036167;28;20046;-67
2021/07/26 09:17:43;;;;;;;4.60;3.72;;;;;;;41.56;15.12;94807.22;5038286;28;20053;-76
2021/07/26 09:20:11;;;;;;;25.25;21.20;;;;;;;41.45;15.26;94803.56;5056469;28;20056;-67
2021/07/26 09:22:41;;;;;;;9.88;7.30;;;;;;;41.52;15.23;94798.44;5056106;28;20045;-66
2021/07/26 09:25:20;;;;;;;6.47;4.38;;;;;;;41.46;15.14;94794.88;5055587;28;20052;-66
2021/07/26 09:28:13;;;;;;;8.80;4.40;;;;;;;42.08;15.10;94801.19;5054508;28;20052;-68
2021/07/26 09:30:49;;;;;;;4.55;4.00;;;;;;;41.32;15.66;94803.88;5035576;28;20058;-67
2021/07/26 09:33:20;;;;;;;5.88;3.67;;;;;;;41.54;15.53;94797.97;5035416;28;20049;-67
2021/07/26 09:36:17;;;;;;;5.55;4.05;;;;;;;41.87;14.77;94803.91;5035203;28;20384;-65
2021/07/26 09:38:52;;;;;;;5.65;3.70;;;;;;;41.65;15.17;94797.41;5035390;28;20045;-68
2021/07/26 09:41:41;;;;;;;4.32;3.60;;;;;;;41.51;15.22;94802.41;5035832;28;20037;-68
2021/07/26 09:44:09;;;;;;;8.05;3.92;;;;;;;41.72;15.25;94802.47;5035878;28;20049;-67
2021/07/26 09:46:39;;;;;;;8.73;4.13;;;;;;;41.99;15.33;94799.34;5035617;28;20061;-67
2021/07/26 09:49:19;;;;;;;4.50;3.78;;;;;;;41.69;15.48;94804.19;5034986;28;20053;-67
2021/07/26 09:52:08;;;;;;;9.27;8.05;;;;;;;42.08;14.96;94801.19;5035528;28;20464;-68
2021/07/26 09:54:49;;;;;;;15.70;14.18;;;;;;;42.15;15.07;94804.28;5035724;28;20061;-68
2021/07/26 09:57:19;;;;;;;7.38;6.68;;;;;;;42.11;15.09;94795.50;5035183;28;20056;-70
2021/07/26 09:59:47;;;;;;;7.05;4.82;;;;;;;41.74;14.63;94806.25;5035156;28;20049;-67
2021/07/26 10:02:15;;;;;;;5.15;4.65;;;;;;;42.15;15.00;94807.03;5035398;28;20482;-66
2021/07/26 10:04:47;;;;;;;8.73;6.43;;;;;;;42.22;14.94;94799.63;5035346;28;20455;-67
2021/07/26 10:07:16;;;;;;;6.13;5.53;;;;;;;41.97;15.54;94804.56;5034548;28;20053;-66
2021/07/26 10:09:47;;;;;;;6.28;4.30;;;;;;;42.00;15.26;94809.06;5034871;28;20049;-66
2021/07/26 10:12:19;;;;;;;4.25;3.50;;;;;;;42.13;14.97;94798.50;5035244;28;20056;-66
2021/07/26 10:14:48;;;;;;;6.15;4.03;;;;;;;42.13;14.50;94798.50;5035093;28;20494;-67
2021/07/26 10:17:16;;;;;;;4.55;3.85;;;;;;;42.45;14.85;94795.88;5035000;28;20068;-65
2021/07/26 10:19:43;;;;;;;6.60;4.28;;;;;;;42.43;14.93;94803.84;5034617;28;20057;-66
2021/07/26 10:22:13;;;;;;;4.75;3.60;;;;;;;42.18;14.41;94800.59;5034943;28;20041;-67
2021/07/26 10:24:50;;;;;;;5.45;4.28;;;;;;;42.21;14.57;94798.13;5034029;28;20490;-66
2021/07/26 10:27:28;;;;;;;43.97;38.08;;;;;;;42.19;14.51;94790.38;5033789;28;20049;-66
2021/07/26 10:29:57;;;;;;;13.88;12.38;;;;;;;42.51;14.44;94782.97;5034741;28;20049;-68
2021/07/26 10:32:30;;;;;;;9.57;7.00;;;;;;;42.40;14.92;94777.31;5035179;28;20511;-66
2021/07/26 10:34:58;;;;;;;6.82;5.18;;;;;;;42.32;14.53;94784.50;5034095;28;20045;-70
2021/07/26 10:37:49;;;;;;;6.45;4.40;;;;;;;42.26;15.12;94773.47;5053555;28;20060;-67
2021/07/26 10:40:31;;;;;;;6.90;4.50;;;;;;;42.31;14.96;94772.00;5029697;28;20056;-67
2021/07/26 10:43:02;;;;;;;6.93;4.25;;;;;;;42.45;14.15;94773.91;5034724;28;20391;-67
2021/07/26 10:45:32;;;;;;;7.15;4.40;;;;;;;42.71;14.38;94769.19;5034663;28;20329;-67
2021/07/26 10:48:22;;;;;;;5.38;4.45;;;;;;;42.50;14.99;94780.72;5034444;28;20052;-67
2021/07/26 10:50:51;;;;;;;5.88;4.60;;;;;;;42.15;15.24;94778.81;5034670;28;20333;-57
2021/07/26 10:53:36;;;;;;;6.32;4.63;;;;;;;41.80;15.44;94774.13;5034446;28;20056;-59
2021/07/26 10:56:07;;;;;;;7.35;4.43;;;;;;;41.63;15.20;94772.38;5034396;28;20049;-55
2021/07/26 10:58:43;;;;;;;6.32;4.25;;;;;;;41.73;15.25;94771.06;5034135;28;20041;-54
2021/07/26 11:01:22;;;;;;;8.38;4.25;;;;;;;41.83;15.38;94767.69;5034432;28;20052;-53
2021/07/26 11:03:54;;;;;;;6.35;4.30;;;;;;;41.65;15.60;94770.72;5034857;28;20048;-57
2021/07/26 11:06:39;;;;;;;6.40;4.78;;;;;;;41.72;15.30;94770.31;5034355;28;20054;-54
2021/07/26 11:09:21;;;;;;;7.93;4.35;;;;;;;41.83;15.29;94769.69;5045263;28;20474;-57
2021/07/26 11:11:52;;;;;;;5.88;4.35;;;;;;;41.55;14.90;94761.81;5054512;28;20443;-57
2021/07/26 11:14:20;;;;;;;5.55;4.50;;;;;;;41.51;14.96;94766.75;5054262;28;20041;-57
2021/07/26 11:16:55;;;;;;;5.25;4.53;;;;;;;41.74;14.78;94758.84;5054336;28;20371;-57
2021/07/26 11:19:41;;;;;;;6.72;4.32;;;;;;;41.50;15.00;94754.28;5053967;28;20475;-55
2021/07/26 11:22:21;;;;;;;7.93;4.78;;;;;;;41.96;15.01;94753.63;5054277;28;20076;-57
2021/07/26 11:24:53;;;;;;;5.78;4.72;;;;;;;41.99;15.05;94755.41;5054261;28;20041;-53
2021/07/26 11:27:23;;;;;;;4.85;4.45;;;;;;;42.11;15.22;94759.81;5053361;28;20048;-54
2021/07/26 11:29:54;;;;;;;6.57;4.97;;;;;;;41.79;15.14;94760.91;5053795;28;20037;-56
2021/07/26 11:32:22;;;;;;;6.93;5.13;;;;;;;41.84;14.90;94765.69;5054015;28;20053;-54
2021/07/26 11:34:53;;;;;;;6.78;4.85;;;;;;;41.85;14.60;94756.22;5054019;28;20375;-58
2021/07/26 11:37:29;;;;;;;5.32;4.78;;;;;;;42.30;14.04;94745.78;5053254;28;20049;-54
2021/07/26 11:40:00;;;;;;;8.50;4.63;;;;;;;41.65;14.43;94748.00;5053586;28;20045;-57
2021/07/26 11:42:42;;;;;;;6.40;4.53;;;;;;;41.26;15.24;94743.47;5054220;28;20048;-58
2021/07/26 11:45:16;;;;;;;7.97;4.75;;;;;;;41.25;15.20;94743.94;5053007;28;20049;-54